createdAt,value
2019-05-06T00:00:55.405Z,3.00
2019-05-06T00:03:14.921Z,2.70
2019-05-06T00:05:44.198Z,2.90
2019-05-06T00:08:14.478Z,3.27
2019-05-06T00:10:44.753Z,3.47
2019-05-06T00:13:14.160Z,2.67
2019-05-06T00:15:43.681Z,3.03
2019-05-06T00:18:13.844Z,3.70
2019-05-06T00:20:43.844Z,2.97
2019-05-06T00:23:18.835Z,2.90
2019-05-06T00:25:59.678Z,2.90
2019-05-06T00:28:38.046Z,2.60
2019-05-06T00:31:13.151Z,3.00
2019-05-06T00:33:40.270Z,3.13
2019-05-06T00:36:09.549Z,3.50
2019-05-06T00:38:40.597Z,3.70
2019-05-06T00:41:14.439Z,3.30
2019-05-06T00:43:43.779Z,3.20
2019-05-06T00:46:13.883Z,3.20
2019-05-06T00:48:44.908Z,2.93
2019-05-06T00:51:14.385Z,2.83
2019-05-06T00:53:47.401Z,3.33
2019-05-06T00:56:16.686Z,3.17
2019-05-06T00:58:45.947Z,3.03
2019-05-06T01:01:26.357Z,3.47
2019-05-06T01:03:46.250Z,3.13
2019-05-06T01:06:15.541Z,2.80
2019-05-06T01:08:44.851Z,2.97
2019-05-06T01:11:14.469Z,3.33
2019-05-06T01:13:49.879Z,3.80
2019-05-06T01:16:20.400Z,3.80
2019-05-06T01:18:49.894Z,3.73
2019-05-06T01:21:19.171Z,3.10
2019-05-06T01:23:48.441Z,3.20
2019-05-06T01:26:17.956Z,3.03
2019-05-06T01:28:47.266Z,2.90
2019-05-06T01:31:16.761Z,3.03
2019-05-06T01:33:46.043Z,2.43
2019-05-06T01:36:15.405Z,3.73
2019-05-06T01:39:16.772Z,3.40
2019-05-06T01:42:21.750Z,3.73
2019-05-06T01:44:51.049Z,3.57
2019-05-06T01:47:20.334Z,3.10
2019-05-06T01:49:49.626Z,4.27
2019-05-06T01:52:18.930Z,3.30
2019-05-06T01:54:48.229Z,3.20
2019-05-06T01:57:17.491Z,4.00
2019-05-06T01:59:46.777Z,3.50
2019-05-06T02:02:16.030Z,3.73
2019-05-06T02:04:45.304Z,3.87
2019-05-06T02:07:14.645Z,3.20
2019-05-06T02:09:44.721Z,3.37
2019-05-06T02:12:14.304Z,4.47
2019-05-06T02:14:43.782Z,3.70
2019-05-06T02:17:14.440Z,3.73
2019-05-06T02:19:43.973Z,3.90
2019-05-06T02:22:50.986Z,3.40
2019-05-06T02:25:26.781Z,3.77
2019-05-06T02:27:56.071Z,3.57
2019-05-06T02:30:50.199Z,3.97
2019-05-06T02:33:35.711Z,3.43
2019-05-06T02:36:15.019Z,4.73
2019-05-06T02:38:47.971Z,4.93
2019-05-06T02:41:15.469Z,4.50
2019-05-06T02:43:45.211Z,4.57
2019-05-06T02:46:14.528Z,4.50
2019-05-06T02:49:07.403Z,4.00
2019-05-06T02:51:36.661Z,3.97
2019-05-06T02:54:07.057Z,4.40
2019-05-06T02:56:36.326Z,4.10
2019-05-06T02:59:05.700Z,3.50
2019-05-06T03:01:34.959Z,3.37
2019-05-06T03:04:13.097Z,3.30
2019-05-06T03:06:44.732Z,4.00
2019-05-06T03:09:13.722Z,3.80
2019-05-06T03:11:43.881Z,3.43
2019-05-06T03:14:14.096Z,3.63
2019-05-06T03:16:44.088Z,2.90
2019-05-06T03:19:13.752Z,4.03
2019-05-06T03:22:03.405Z,3.67
2019-05-06T03:24:43.651Z,3.13
2019-05-06T03:27:14.694Z,3.30
2019-05-06T03:29:44.673Z,3.03
2019-05-06T03:32:21.407Z,2.97
2019-05-06T03:35:01.245Z,3.70
2019-05-06T03:37:17.430Z,3.10
2019-05-06T03:39:46.931Z,3.30
2019-05-06T03:42:16.952Z,3.53
2019-05-06T03:45:04.179Z,3.50
2019-05-06T03:47:56.207Z,4.17
2019-05-06T03:50:25.495Z,3.13
2019-05-06T03:52:56.488Z,3.13
2019-05-06T03:55:27.163Z,3.90
2019-05-06T03:57:57.521Z,2.90
2019-05-06T04:00:26.788Z,3.43
2019-05-06T04:02:56.101Z,2.80
2019-05-06T04:05:25.368Z,3.37
2019-05-06T04:07:54.946Z,3.27
2019-05-06T04:10:24.206Z,3.37
2019-05-06T04:12:54.590Z,3.63
2019-05-06T04:15:26.876Z,3.00
2019-05-06T04:17:59.254Z,3.20
2019-05-06T04:20:46.138Z,2.87
2019-05-06T04:23:43.476Z,2.90
2019-05-06T04:26:32.946Z,3.17
2019-05-06T04:29:03.872Z,3.40
2019-05-06T04:31:33.961Z,3.40
2019-05-06T04:34:12.765Z,2.53
2019-05-06T04:36:34.779Z,3.00
2019-05-06T04:39:05.613Z,2.60
2019-05-06T04:41:35.324Z,3.13
2019-05-06T04:44:04.781Z,2.70
2019-05-06T04:46:35.077Z,3.23
2019-05-06T04:49:04.646Z,3.13
2019-05-06T04:51:36.969Z,2.70
2019-05-06T04:54:05.969Z,2.57
2019-05-06T04:56:35.753Z,3.00
2019-05-06T04:59:06.226Z,2.80
2019-05-06T05:01:37.010Z,2.80
2019-05-06T05:04:22.828Z,2.17
2019-05-06T05:07:04.785Z,2.97
2019-05-06T05:09:35.570Z,2.80
2019-05-06T05:12:13.358Z,2.97
2019-05-06T05:14:56.008Z,2.80
2019-05-06T05:17:52.489Z,3.00
2019-05-06T05:20:36.451Z,2.43
2019-05-06T05:22:52.893Z,2.97
2019-05-06T05:25:23.056Z,2.20
2019-05-06T05:27:52.870Z,2.97
2019-05-06T05:30:22.301Z,2.93
2019-05-06T05:32:52.077Z,2.73
2019-05-06T05:35:22.703Z,2.70
2019-05-06T05:37:52.940Z,2.93
2019-05-06T05:40:22.565Z,2.60
2019-05-06T05:43:29.317Z,2.97
2019-05-06T05:45:58.658Z,2.80
2019-05-06T05:48:51.983Z,3.10
2019-05-06T05:51:22.242Z,2.83
2019-05-06T05:53:52.440Z,2.80
2019-05-06T05:56:24.001Z,3.13
2019-05-06T05:58:53.503Z,2.97
2019-05-06T06:01:25.001Z,2.80
2019-05-06T06:03:54.348Z,2.60
2019-05-06T06:06:26.802Z,2.83
2019-05-06T06:08:57.355Z,2.87
2019-05-06T06:11:32.795Z,3.10
2019-05-06T06:14:07.016Z,3.63
2019-05-06T06:17:02.661Z,2.97
2019-05-06T06:19:45.014Z,3.07
2019-05-06T06:22:17.734Z,3.10
2019-05-06T06:24:47.718Z,3.60
2019-05-06T06:27:17.543Z,3.40
2019-05-06T06:29:48.156Z,3.50
2019-05-06T06:32:23.312Z,3.07
2019-05-06T06:35:11.046Z,3.37
2019-05-06T06:37:57.304Z,3.03
2019-05-06T06:40:28.917Z,2.97
2019-05-06T06:43:02.690Z,2.87
2019-05-06T06:45:32.672Z,3.00
2019-05-06T06:48:03.156Z,2.43
2019-05-06T06:50:33.023Z,2.17
2019-05-06T06:53:03.150Z,2.33
2019-05-06T06:55:32.528Z,2.70
2019-05-06T06:58:19.491Z,2.00
2019-05-06T07:01:07.059Z,2.47
2019-05-06T07:03:52.824Z,1.50
2019-05-06T07:06:35.365Z,1.80
2019-05-06T07:09:06.320Z,1.80
2019-05-06T07:11:35.667Z,1.97
2019-05-06T07:14:04.967Z,2.07
2019-05-06T07:16:34.239Z,1.60
2019-05-06T07:19:06.763Z,2.00
2019-05-06T07:21:57.360Z,1.70
2019-05-06T07:24:26.688Z,1.87
2019-05-06T07:27:08.173Z,1.97
2019-05-06T07:29:37.486Z,1.80
2019-05-06T07:32:06.798Z,2.17
2019-05-06T07:34:36.071Z,2.30
2019-05-06T07:37:05.399Z,2.50
2019-05-06T07:39:34.686Z,2.93
2019-05-06T07:42:07.901Z,2.63
2019-05-06T07:44:54.380Z,2.47
2019-05-06T07:47:42.793Z,2.80
2019-05-06T07:50:23.943Z,3.00
2019-05-06T07:53:07.830Z,2.77
2019-05-06T07:55:38.259Z,2.60
2019-05-06T07:58:08.136Z,2.93
2019-05-06T08:00:37.738Z,2.70
2019-05-06T08:03:07.239Z,2.90
2019-05-06T08:05:36.533Z,3.00
2019-05-06T08:08:06.087Z,3.90
2019-05-06T08:10:35.567Z,3.53
2019-05-06T08:13:04.930Z,3.80
2019-05-06T08:15:34.530Z,3.30
2019-05-06T08:18:03.812Z,3.90
2019-05-06T08:20:39.547Z,3.63
2019-05-06T08:23:22.057Z,3.90
2019-05-06T08:25:54.308Z,4.20
2019-05-06T08:28:37.578Z,3.47
2019-05-06T08:30:59.902Z,3.97
2019-05-06T08:33:29.320Z,4.27
2019-05-06T08:36:08.810Z,3.70
2019-05-06T08:38:50.388Z,3.60
2019-05-06T08:41:19.690Z,3.50
2019-05-06T08:43:48.985Z,3.43
2019-05-06T08:46:18.264Z,3.33
2019-05-06T08:48:47.581Z,3.30
2019-05-06T08:51:24.356Z,3.43
2019-05-06T08:54:03.202Z,3.77
2019-05-06T08:56:32.632Z,3.77
2019-05-06T08:59:03.178Z,3.43
2019-05-06T09:01:42.458Z,3.97
2019-05-06T09:04:12.637Z,4.70
2019-05-06T09:06:43.333Z,3.13
2019-05-06T09:09:13.174Z,3.93
2019-05-06T09:12:03.879Z,3.93
2019-05-06T09:14:33.309Z,3.93
2019-05-06T09:17:03.029Z,3.57
2019-05-06T09:19:33.230Z,4.23
2019-05-06T09:22:02.728Z,3.63
2019-05-06T09:24:33.775Z,3.87
2019-05-06T09:27:22.597Z,3.73
2019-05-06T09:29:54.711Z,4.47
2019-05-06T09:32:27.937Z,4.23
2019-05-06T09:34:58.911Z,3.30
2019-05-06T09:37:28.207Z,3.40
2019-05-06T09:39:57.496Z,2.60
2019-05-06T09:42:26.786Z,2.97
2019-05-06T09:44:56.047Z,3.07
2019-05-06T09:47:42.228Z,3.00
2019-05-06T09:50:13.711Z,3.43
2019-05-06T09:52:42.988Z,3.73
2019-05-06T09:55:26.708Z,2.93
2019-05-06T09:57:57.947Z,3.07
2019-05-06T10:00:28.308Z,2.73
2019-05-06T10:02:57.592Z,3.00
2019-05-06T10:05:26.996Z,3.40
2019-05-06T10:07:57.729Z,2.77
2019-05-06T10:10:27.214Z,3.17
2019-05-06T10:12:56.593Z,2.80
2019-05-06T10:15:25.891Z,3.03
2019-05-06T10:18:13.189Z,2.77
2019-05-06T10:20:44.450Z,2.80
2019-05-06T10:23:14.560Z,2.43
2019-05-06T10:25:44.517Z,2.80
2019-05-06T10:28:33.888Z,2.87
2019-05-06T10:31:04.722Z,2.50
2019-05-06T10:33:35.305Z,2.60
2019-05-06T10:36:04.904Z,2.43
2019-05-06T10:38:50.342Z,2.40
2019-05-06T10:41:22.563Z,2.10
2019-05-06T10:44:23.166Z,2.07
2019-05-06T10:46:52.827Z,1.70
2019-05-06T10:49:22.544Z,1.53
2019-05-06T10:52:12.743Z,1.97
2019-05-06T10:54:42.207Z,1.87
2019-05-06T10:57:24.438Z,1.60
2019-05-06T10:59:53.756Z,2.30
2019-05-06T11:02:48.247Z,1.73
2019-05-06T11:05:18.954Z,1.97
2019-05-06T11:07:48.308Z,1.90
2019-05-06T11:10:26.830Z,2.10
2019-05-06T11:12:52.333Z,2.10
2019-05-06T11:15:23.242Z,2.37
2019-05-06T11:17:52.747Z,2.40
2019-05-06T11:20:24.197Z,2.27
2019-05-06T11:22:53.713Z,2.43
2019-05-06T11:25:23.166Z,2.17
2019-05-06T11:27:52.878Z,2.43
2019-05-06T11:30:42.524Z,3.10
2019-05-06T11:33:30.132Z,3.20
2019-05-06T11:36:02.367Z,2.60
2019-05-06T11:38:32.262Z,2.97
2019-05-06T11:41:01.766Z,2.53
2019-05-06T11:43:32.449Z,2.73
2019-05-06T11:46:01.991Z,2.90
2019-05-06T11:48:32.810Z,2.93
2019-05-06T11:51:03.975Z,3.13
2019-05-06T11:53:33.260Z,2.97
2019-05-06T11:56:10.013Z,3.37
2019-05-06T11:58:49.867Z,3.33
2019-05-06T12:01:32.860Z,3.07
2019-05-06T12:04:02.808Z,3.63
2019-05-06T12:06:33.049Z,3.43
2019-05-06T12:09:06.449Z,3.67
2019-05-06T12:11:33.774Z,3.53
2019-05-06T12:14:03.090Z,3.47
2019-05-06T12:16:33.128Z,3.27
2019-05-06T12:19:02.989Z,3.50
2019-05-06T12:21:32.941Z,3.27
2019-05-06T12:24:03.616Z,2.77
2019-05-06T12:26:32.876Z,2.57
2019-05-06T12:29:02.451Z,3.73
2019-05-06T12:31:32.773Z,3.03
2019-05-06T12:34:02.848Z,3.17
2019-05-06T12:36:32.700Z,2.87
2019-05-06T12:39:20.141Z,2.90
2019-05-06T12:42:15.030Z,2.90
2019-05-06T12:44:59.210Z,2.80
2019-05-06T12:47:48.586Z,2.50
2019-05-06T12:50:18.105Z,2.60
2019-05-06T12:52:47.391Z,2.37
2019-05-06T12:55:21.672Z,2.27
2019-05-06T12:57:48.871Z,2.63
2019-05-06T13:00:18.265Z,3.30
2019-05-06T13:02:48.788Z,3.17
2019-05-06T13:05:18.286Z,2.80
2019-05-06T13:07:48.122Z,3.50
2019-05-06T13:10:23.076Z,3.63
2019-05-06T13:13:03.923Z,3.47
2019-05-06T13:15:33.208Z,3.80
2019-05-06T13:18:07.380Z,4.50
2019-05-06T13:20:38.024Z,3.60
2019-05-06T13:23:35.098Z,3.80
2019-05-06T13:26:04.582Z,3.30
2019-05-06T13:28:37.752Z,3.50
2019-05-06T13:31:17.155Z,3.63
2019-05-06T13:33:54.063Z,3.70
2019-05-06T13:36:23.087Z,3.47
2019-05-06T13:39:09.180Z,3.13
2019-05-06T13:41:23.398Z,3.60
2019-05-06T13:44:17.562Z,3.30
2019-05-06T13:46:53.342Z,3.20
2019-05-06T13:49:47.656Z,3.70
2019-05-06T13:52:22.772Z,3.87
2019-05-06T13:54:53.179Z,3.43
2019-05-06T13:57:22.408Z,3.17
2019-05-06T13:59:53.215Z,3.03
2019-05-06T14:02:35.587Z,3.50
2019-05-06T14:05:06.574Z,2.90
2019-05-06T14:07:37.093Z,3.00
2019-05-06T14:10:07.057Z,2.87
2019-05-06T14:12:36.350Z,2.77
2019-05-06T14:15:07.399Z,3.40
2019-05-06T14:17:36.827Z,3.10
2019-05-06T14:20:06.847Z,3.47
2019-05-06T14:22:36.263Z,3.13
2019-05-06T14:25:33.348Z,2.90
2019-05-06T14:28:13.294Z,2.77
2019-05-06T14:30:54.678Z,3.10
2019-05-06T14:33:23.977Z,2.67
2019-05-06T14:35:53.275Z,3.03
2019-05-06T14:38:24.521Z,2.97
2019-05-06T14:41:27.018Z,2.80
2019-05-06T14:43:52.653Z,3.37
2019-05-06T14:46:22.898Z,3.10
2019-05-06T14:48:53.410Z,2.00
2019-05-06T14:51:22.917Z,2.40
2019-05-06T14:53:53.076Z,2.30
2019-05-06T14:56:32.232Z,2.27
2019-05-06T14:59:05.668Z,2.80
2019-05-06T15:01:36.887Z,2.50
2019-05-06T15:04:06.461Z,2.27
2019-05-06T15:06:35.805Z,2.67
2019-05-06T15:09:07.710Z,2.10
2019-05-06T15:11:37.010Z,2.10
2019-05-06T15:14:06.500Z,2.70
2019-05-06T15:16:35.776Z,2.50
2019-05-06T15:19:05.320Z,2.43
2019-05-06T15:21:38.319Z,2.30
2019-05-06T15:24:06.732Z,2.70
2019-05-06T15:26:35.987Z,7.50
2019-05-06T15:29:05.377Z,3.27
2019-05-06T15:31:45.778Z,2.33
2019-05-06T15:34:22.480Z,2.30
2019-05-06T15:37:08.152Z,2.40
2019-05-06T15:39:37.468Z,2.03
2019-05-06T15:42:06.733Z,2.60
2019-05-06T15:44:36.031Z,2.80
2019-05-06T15:47:06.515Z,2.80
2019-05-06T15:49:37.630Z,2.77
2019-05-06T15:52:07.008Z,2.73
2019-05-06T15:54:36.279Z,2.13
2019-05-06T15:57:05.619Z,2.40
2019-05-06T15:59:41.111Z,2.43
2019-05-06T16:02:11.956Z,2.03
2019-05-06T16:04:43.325Z,2.10
2019-05-06T16:07:15.503Z,1.73
2019-05-06T16:09:46.976Z,1.90
2019-05-06T16:12:19.383Z,2.07
2019-05-06T16:14:53.118Z,2.43
2019-05-06T16:17:24.142Z,2.10
2019-05-06T16:19:56.328Z,2.40
2019-05-06T16:22:27.792Z,2.00
2019-05-06T16:25:04.711Z,2.10
2019-05-06T16:27:36.496Z,2.23
2019-05-06T16:30:10.127Z,1.73
2019-05-06T16:32:41.968Z,1.73
2019-05-06T16:35:11.940Z,2.73
2019-05-06T16:37:42.530Z,1.83
2019-05-06T16:40:12.432Z,2.20
2019-05-06T16:42:45.920Z,1.80
2019-05-06T16:45:14.062Z,1.80
2019-05-06T16:47:44.829Z,2.37
2019-05-06T16:50:17.010Z,2.57
2019-05-06T16:52:47.415Z,2.40
2019-05-06T16:55:24.199Z,2.60
2019-05-06T16:58:02.595Z,2.47
2019-05-06T17:00:33.651Z,2.20
2019-05-06T17:03:11.702Z,2.00
2019-05-06T17:06:07.124Z,1.90
2019-05-06T17:08:36.950Z,1.67
2019-05-06T17:11:08.281Z,1.60
2019-05-06T17:13:39.633Z,2.30
2019-05-06T17:16:13.690Z,2.10
2019-05-06T17:18:44.526Z,1.70
2019-05-06T17:21:16.251Z,1.83
2019-05-06T17:23:47.504Z,1.77
2019-05-06T17:26:19.259Z,1.77
2019-05-06T17:29:22.671Z,1.97
2019-05-06T17:32:19.294Z,1.57
2019-05-06T17:34:52.879Z,1.60
2019-05-06T17:37:42.230Z,1.83
2019-05-06T17:40:15.842Z,1.80
2019-05-06T17:42:45.955Z,1.90
2019-05-06T17:45:36.478Z,1.90
2019-05-06T17:48:18.048Z,2.30
2019-05-06T17:51:08.466Z,2.17
2019-05-06T17:53:42.612Z,1.70
2019-05-06T17:56:14.178Z,1.80
2019-05-06T17:58:45.140Z,1.80
2019-05-06T18:01:16.091Z,1.83
2019-05-06T18:03:46.144Z,1.70
2019-05-06T18:06:15.464Z,2.33
2019-05-06T18:08:46.501Z,2.10
2019-05-06T18:11:15.793Z,1.80
2019-05-06T18:13:45.071Z,1.70
2019-05-06T18:16:15.633Z,1.67
2019-05-06T18:18:44.986Z,2.10
2019-05-06T18:21:14.282Z,1.67
2019-05-06T18:23:43.598Z,1.97
2019-05-06T18:26:12.919Z,2.20
2019-05-06T18:28:44.042Z,1.70
2019-05-06T18:31:14.554Z,1.90
2019-05-06T18:33:43.860Z,1.60
2019-05-06T18:36:13.208Z,2.03
2019-05-06T18:38:42.556Z,1.90
2019-05-06T18:41:12.081Z,2.63
2019-05-06T18:43:43.254Z,2.23
2019-05-06T18:46:13.432Z,2.10
2019-05-06T18:48:42.870Z,1.97
2019-05-06T18:51:13.986Z,2.03
2019-05-06T18:53:43.296Z,1.67
2019-05-06T18:56:12.779Z,2.10
2019-05-06T18:58:42.881Z,1.97
2019-05-06T19:01:13.281Z,1.73
2019-05-06T19:03:55.441Z,2.20
2019-05-06T19:06:24.718Z,1.90
2019-05-06T19:09:03.262Z,2.00
2019-05-06T19:11:32.811Z,1.83
2019-05-06T19:14:02.245Z,1.83
2019-05-06T19:16:48.328Z,2.90
2019-05-06T19:19:06.059Z,2.93
2019-05-06T19:21:35.578Z,2.13
2019-05-06T19:24:04.873Z,2.10
2019-05-06T19:26:34.191Z,2.20
2019-05-06T19:29:04.587Z,2.20
2019-05-06T19:31:34.360Z,2.60
2019-05-06T19:34:06.938Z,2.73
2019-05-06T19:36:37.509Z,2.20
2019-05-06T19:39:07.956Z,2.67
2019-05-06T19:41:37.241Z,2.83
2019-05-06T19:44:06.620Z,2.43
2019-05-06T19:46:35.915Z,2.53
2019-05-06T19:49:05.224Z,3.00
2019-05-06T19:51:35.196Z,3.00
2019-05-06T19:54:04.735Z,3.03
2019-05-06T19:56:35.126Z,2.93
2019-05-06T19:59:04.493Z,2.80
2019-05-06T20:01:33.806Z,2.53
2019-05-06T20:04:03.215Z,2.27
2019-05-06T20:06:52.361Z,2.60
2019-05-06T20:09:32.922Z,2.60
2019-05-06T20:12:22.998Z,2.77
2019-05-06T20:14:46.121Z,3.00
2019-05-06T20:17:15.484Z,3.03
2019-05-06T20:19:44.791Z,3.27
2019-05-06T20:22:14.075Z,3.30
2019-05-06T20:24:43.350Z,3.40
2019-05-06T20:27:13.261Z,2.90
2019-05-06T20:29:43.900Z,2.67
2019-05-06T20:32:14.710Z,3.00
2019-05-06T20:34:44.024Z,2.97
2019-05-06T20:37:13.629Z,3.00
2019-05-06T20:39:43.475Z,2.97
2019-05-06T20:42:13.019Z,3.23
2019-05-06T20:44:43.427Z,3.27
2019-05-06T20:47:13.210Z,4.03
2019-05-06T20:49:43.261Z,3.93
2019-05-06T20:52:12.551Z,3.80
2019-05-06T20:54:42.882Z,3.50
2019-05-06T20:57:12.442Z,3.97
2019-05-06T20:59:42.170Z,3.87
2019-05-06T21:02:12.473Z,4.37
2019-05-06T21:04:43.211Z,4.37
2019-05-06T21:07:13.641Z,4.53
2019-05-06T21:09:43.333Z,4.67
2019-05-06T21:12:13.705Z,4.50
2019-05-06T21:14:43.007Z,4.33
2019-05-06T21:17:12.566Z,4.57
2019-05-06T21:19:43.756Z,4.40
2019-05-06T21:22:13.393Z,3.93
2019-05-06T21:24:43.179Z,4.53
2019-05-06T21:27:14.034Z,4.80
2019-05-06T21:29:43.351Z,4.47
2019-05-06T21:32:12.612Z,5.07
2019-05-06T21:34:46.411Z,4.50
2019-05-06T21:37:15.707Z,5.43
2019-05-06T21:39:44.999Z,5.03
2019-05-06T21:42:14.600Z,4.90
2019-05-06T21:44:43.888Z,5.13
2019-05-06T21:47:14.258Z,4.37
2019-05-06T21:49:43.566Z,4.57
2019-05-06T21:52:13.251Z,4.93
2019-05-06T21:54:43.405Z,4.57
2019-05-06T21:57:12.986Z,4.07
2019-05-06T21:59:42.830Z,4.40
2019-05-06T22:02:14.436Z,3.70
2019-05-06T22:04:44.031Z,5.03
2019-05-06T22:07:14.532Z,4.10
2019-05-06T22:09:44.160Z,4.20
2019-05-06T22:12:13.788Z,4.30
2019-05-06T22:14:43.163Z,4.97
2019-05-06T22:17:14.111Z,4.70
2019-05-06T22:19:43.850Z,3.80
2019-05-06T22:22:14.630Z,4.03
2019-05-06T22:24:57.387Z,4.27
2019-05-06T22:27:22.160Z,4.57
2019-05-06T22:29:52.866Z,4.30
2019-05-06T22:32:23.157Z,4.60
2019-05-06T22:34:52.593Z,4.63
2019-05-06T22:37:22.180Z,4.20
2019-05-06T22:39:52.774Z,4.17
2019-05-06T22:42:24.958Z,6.20
2019-05-06T22:44:54.396Z,5.67
2019-05-06T22:47:23.659Z,6.67
2019-05-06T22:49:54.338Z,6.90
2019-05-06T22:52:23.798Z,5.70
2019-05-06T22:54:53.098Z,5.93
2019-05-06T22:57:23.552Z,5.80
2019-05-06T22:59:53.018Z,4.73
2019-05-06T23:02:43.794Z,5.30
2019-05-06T23:05:13.299Z,5.30
2019-05-06T23:07:42.581Z,5.63
2019-05-06T23:10:12.093Z,4.53
2019-05-06T23:12:43.342Z,5.90
2019-05-06T23:15:12.556Z,5.07
2019-05-06T23:17:43.282Z,5.73
2019-05-06T23:20:12.589Z,5.47
2019-05-06T23:22:42.346Z,5.30
2019-05-06T23:25:12.610Z,5.67
2019-05-06T23:27:44.059Z,5.97
2019-05-06T23:30:12.937Z,5.40
2019-05-06T23:32:42.455Z,5.80
2019-05-06T23:35:12.833Z,6.03
2019-05-06T23:38:18.319Z,5.33
2019-05-06T23:41:23.214Z,5.60
2019-05-06T23:44:41.526Z,5.73
2019-05-06T23:47:35.581Z,6.17
2019-05-06T23:50:42.826Z,6.20
2019-05-06T23:53:47.475Z,5.97
2019-05-06T23:56:43.359Z,6.07
2019-05-06T23:59:13.066Z,5.67
